sensor_id;sensor_type;location;lat;lon;timestamp;temperature;humidity
38606;DHT22;24365;48.446;8.850;2023-04-29T06:32:16;11.00;88.60
38606;DHT22;24365;48.446;8.850;2023-04-29T06:37:19;11.10;92.70
38606;DHT22;24365;48.446;8.850;2023-04-29T06:42:43;11.50;93.70
38606;DHT22;24365;48.446;8.850;2023-04-29T06:48:17;11.70;93.50
38606;DHT22;24365;48.446;8.850;2023-04-29T06:53:23;12.10;94.30
38606;DHT22;24365;48.446;8.850;2023-04-29T06:58:24;12.50;95.10
38606;DHT22;24365;48.446;8.850;2023-04-29T07:03:25;12.80;95.30
38606;DHT22;24365;48.446;8.850;2023-04-29T07:08:27;13.00;91.50
38606;DHT22;24365;48.446;8.850;2023-04-29T07:13:28;13.10;88.20
38606;DHT22;24365;48.446;8.850;2023-04-29T07:18:29;13.20;85.30
38606;DHT22;24365;48.446;8.850;2023-04-29T07:23:30;13.20;84.50
38606;DHT22;24365;48.446;8.850;2023-04-29T07:28:32;13.10;83.20
38606;DHT22;24365;48.446;8.850;2023-04-29T07:33:34;13.20;84.40
38606;DHT22;24365;48.446;8.850;2023-04-29T07:38:36;13.50;84.70
38606;DHT22;24365;48.446;8.850;2023-04-29T07:43:37;14.10;84.20
38606;DHT22;24365;48.446;8.850;2023-04-29T07:48:38;14.40;78.80
38606;DHT22;24365;48.446;8.850;2023-04-29T07:53:40;14.80;76.60
38606;DHT22;24365;48.446;8.850;2023-04-29T07:58:41;15.00;71.70
38606;DHT22;24365;48.446;8.850;2023-04-29T08:03:42;15.20;69.70
38606;DHT22;24365;48.446;8.850;2023-04-29T08:08:47;15.20;68.10
38606;DHT22;24365;48.446;8.850;2023-04-29T08:13:48;15.30;68.60
38606;DHT22;24365;48.446;8.850;2023-04-29T08:18:51;15.50;63.60
38606;DHT22;24365;48.446;8.850;2023-04-29T08:23:52;15.80;64.70
38606;DHT22;24365;48.446;8.850;2023-04-29T08:28:54;16.60;62.20
38606;DHT22;24365;48.446;8.850;2023-04-29T08:33:55;16.70;58.60
38606;DHT22;24365;48.446;8.850;2023-04-29T08:38:58;17.30;58.80
38606;DHT22;24365;48.446;8.850;2023-04-29T08:43:59;17.70;50.80
38606;DHT22;24365;48.446;8.850;2023-04-29T08:49:02;17.70;50.50
38606;DHT22;24365;48.446;8.850;2023-04-29T08:54:03;17.90;48.00
38606;DHT22;24365;48.446;8.850;2023-04-29T08:59:08;17.90;47.30
38606;DHT22;24365;48.446;8.850;2023-04-29T09:04:46;18.30;47.80
38606;DHT22;24365;48.446;8.850;2023-04-29T09:09:48;18.50;48.10
38606;DHT22;24365;48.446;8.850;2023-04-29T09:14:51;18.30;45.40
38606;DHT22;24365;48.446;8.850;2023-04-29T09:19:52;18.50;46.80
38606;DHT22;24365;48.446;8.850;2023-04-29T09:25:11;18.60;45.20
38606;DHT22;24365;48.446;8.850;2023-04-29T09:30:12;18.10;46.40
38606;DHT22;24365;48.446;8.850;2023-04-29T09:35:22;17.80;46.40
38606;DHT22;24365;48.446;8.850;2023-04-29T09:40:30;17.70;49.10
38606;DHT22;24365;48.446;8.850;2023-04-29T09:45:40;18.20;45.80
38606;DHT22;24365;48.446;8.850;2023-04-29T09:50:43;17.90;44.50
38606;DHT22;24365;48.446;8.850;2023-04-29T10:00:57;18.00;47.10
38606;DHT22;24365;48.446;8.850;2023-04-29T10:06:00;18.70;46.10
38606;DHT22;24365;48.446;8.850;2023-04-29T10:11:03;19.50;43.00
38606;DHT22;24365;48.446;8.850;2023-04-29T10:21:28;18.70;42.60
38606;DHT22;24365;48.446;8.850;2023-04-29T10:26:31;18.20;43.70
38606;DHT22;24365;48.446;8.850;2023-04-29T10:31:34;18.00;43.80
38606;DHT22;24365;48.446;8.850;2023-04-29T10:36:36;18.10;45.10
38606;DHT22;24365;48.446;8.850;2023-04-29T10:41:43;18.20;44.40
38606;DHT22;24365;48.446;8.850;2023-04-29T10:46:47;18.40;42.60
38606;DHT22;24365;48.446;8.850;2023-04-29T10:51:48;19.10;41.70
38606;DHT22;24365;48.446;8.850;2023-04-29T10:56:50;19.30;39.70
38606;DHT22;24365;48.446;8.850;2023-04-29T11:01:52;18.90;39.40
38606;DHT22;24365;48.446;8.850;2023-04-29T11:06:55;19.10;41.30
38606;DHT22;24365;48.446;8.850;2023-04-29T11:12:19;19.80;39.60
38606;DHT22;24365;48.446;8.850;2023-04-29T11:17:22;20.40;38.20
38606;DHT22;24365;48.446;8.850;2023-04-29T11:22:26;20.50;37.00
38606;DHT22;24365;48.446;8.850;2023-04-29T11:27:37;20.00;37.20
38606;DHT22;24365;48.446;8.850;2023-04-29T11:32:40;20.10;34.80
38606;DHT22;24365;48.446;8.850;2023-04-29T11:37:45;20.00;35.80
38606;DHT22;24365;48.446;8.850;2023-04-29T11:42:47;20.30;36.70
38606;DHT22;24365;48.446;8.850;2023-04-29T11:53:13;20.50;35.60
38606;DHT22;24365;48.446;8.850;2023-04-29T11:58:14;20.10;35.60
38606;DHT22;24365;48.446;8.850;2023-04-29T12:03:18;19.70;36.70
38606;DHT22;24365;48.446;8.850;2023-04-29T12:08:21;19.50;37.60
38606;DHT22;24365;48.446;8.850;2023-04-29T12:13:23;19.80;36.80
38606;DHT22;24365;48.446;8.850;2023-04-29T12:18:26;20.10;37.10
38606;DHT22;24365;48.446;8.850;2023-04-29T12:23:28;20.40;37.30
38606;DHT22;24365;48.446;8.850;2023-04-29T12:28:29;20.70;35.40
38606;DHT22;24365;48.446;8.850;2023-04-29T12:33:30;21.20;35.30
38606;DHT22;24365;48.446;8.850;2023-04-29T12:38:31;21.60;35.00
38606;DHT22;24365;48.446;8.850;2023-04-29T12:43:32;21.00;33.40
38606;DHT22;24365;48.446;8.850;2023-04-29T12:48:35;20.20;36.50
38606;DHT22;24365;48.446;8.850;2023-04-29T12:53:45;20.10;36.50
38606;DHT22;24365;48.446;8.850;2023-04-29T12:58:46;20.00;36.10
38606;DHT22;24365;48.446;8.850;2023-04-29T13:03:47;20.10;37.70
38606;DHT22;24365;48.446;8.850;2023-04-29T13:08:49;20.30;35.90
38606;DHT22;24365;48.446;8.850;2023-04-29T13:13:51;20.30;37.00
38606;DHT22;24365;48.446;8.850;2023-04-29T13:18:52;20.30;36.40
38606;DHT22;24365;48.446;8.850;2023-04-29T13:23:54;20.60;35.20
38606;DHT22;24365;48.446;8.850;2023-04-29T13:28:55;21.00;34.80
38606;DHT22;24365;48.446;8.850;2023-04-29T13:33:56;21.30;35.20
38606;DHT22;24365;48.446;8.850;2023-04-29T13:38:57;21.50;32.30
38606;DHT22;24365;48.446;8.850;2023-04-29T13:43:58;20.90;33.40
38606;DHT22;24365;48.446;8.850;2023-04-29T13:48:59;20.40;34.70
38606;DHT22;24365;48.446;8.850;2023-04-29T13:54:01;20.40;34.50
38606;DHT22;24365;48.446;8.850;2023-04-29T13:59:02;20.60;34.50
38606;DHT22;24365;48.446;8.850;2023-04-29T14:04:03;20.30;35.30
38606;DHT22;24365;48.446;8.850;2023-04-29T14:09:04;20.20;35.30
38606;DHT22;24365;48.446;8.850;2023-04-29T14:14:05;19.80;35.20
38606;DHT22;24365;48.446;8.850;2023-04-29T14:19:07;19.80;36.20
38606;DHT22;24365;48.446;8.850;2023-04-29T14:24:08;19.90;34.80
38606;DHT22;24365;48.446;8.850;2023-04-29T14:29:09;20.70;36.00
38606;DHT22;24365;48.446;8.850;2023-04-29T14:34:10;20.40;33.80
38606;DHT22;24365;48.446;8.850;2023-04-29T14:39:11;20.20;34.50
38606;DHT22;24365;48.446;8.850;2023-04-29T14:44:13;19.70;33.60
38606;DHT22;24365;48.446;8.850;2023-04-29T14:49:14;19.70;35.60
38606;DHT22;24365;48.446;8.850;2023-04-29T14:54:16;19.80;35.60
38606;DHT22;24365;48.446;8.850;2023-04-29T14:59:17;19.70;34.40
38606;DHT22;24365;48.446;8.850;2023-04-29T15:04:18;19.50;35.30
38606;DHT22;24365;48.446;8.850;2023-04-29T15:09:19;19.40;37.50
38606;DHT22;24365;48.446;8.850;2023-04-29T15:14:20;19.50;38.30
38606;DHT22;24365;48.446;8.850;2023-04-29T15:19:22;19.40;38.30
38606;DHT22;24365;48.446;8.850;2023-04-29T15:24:24;19.40;39.10
38606;DHT22;24365;48.446;8.850;2023-04-29T15:29:25;19.40;39.60
38606;DHT22;24365;48.446;8.850;2023-04-29T15:34:26;19.10;39.50
38606;DHT22;24365;48.446;8.850;2023-04-29T15:39:27;18.70;40.80
38606;DHT22;24365;48.446;8.850;2023-04-29T15:44:28;18.10;41.10
38606;DHT22;24365;48.446;8.850;2023-04-29T15:49:31;17.90;42.60
38606;DHT22;24365;48.446;8.850;2023-04-29T15:54:32;17.60;43.30
38606;DHT22;24365;48.446;8.850;2023-04-29T15:59:33;17.50;43.40
38606;DHT22;24365;48.446;8.850;2023-04-29T16:04:34;17.10;43.80
38606;DHT22;24365;48.446;8.850;2023-04-29T16:09:35;16.90;44.40
38606;DHT22;24365;48.446;8.850;2023-04-29T16:14:36;16.70;45.20
38606;DHT22;24365;48.446;8.850;2023-04-29T16:19:38;16.60;46.50
38606;DHT22;24365;48.446;8.850;2023-04-29T16:24:40;16.60;45.10
38606;DHT22;24365;48.446;8.850;2023-04-29T16:29:41;16.70;45.40
38606;DHT22;24365;48.446;8.850;2023-04-29T16:34:42;16.50;45.60
38606;DHT22;24365;48.446;8.850;2023-04-29T16:39:43;16.40;44.80
38606;DHT22;24365;48.446;8.850;2023-04-29T16:44:44;16.10;45.90
38606;DHT22;24365;48.446;8.850;2023-04-29T16:49:45;15.90;46.90
38606;DHT22;24365;48.446;8.850;2023-04-29T16:54:46;16.00;46.90
38606;DHT22;24365;48.446;8.850;2023-04-29T16:59:47;16.00;46.70
38606;DHT22;24365;48.446;8.850;2023-04-29T17:04:49;15.90;46.10
38606;DHT22;24365;48.446;8.850;2023-04-29T17:09:50;15.70;47.60
38606;DHT22;24365;48.446;8.850;2023-04-29T17:14:51;15.80;47.60
38606;DHT22;24365;48.446;8.850;2023-04-29T17:19:52;15.60;47.50
38606;DHT22;24365;48.446;8.850;2023-04-29T17:24:54;15.40;47.80
38606;DHT22;24365;48.446;8.850;2023-04-29T17:29:55;15.30;49.30
38606;DHT22;24365;48.446;8.850;2023-04-29T17:34:58;15.20;49.00
38606;DHT22;24365;48.446;8.850;2023-04-29T17:39:59;15.10;49.10
38606;DHT22;24365;48.446;8.850;2023-04-29T17:45:00;14.90;49.50
38606;DHT22;24365;48.446;8.850;2023-04-29T17:50:01;14.80;49.60
38606;DHT22;24365;48.446;8.850;2023-04-29T17:55:02;14.60;50.40
38606;DHT22;24365;48.446;8.850;2023-04-29T18:00:07;14.40;50.70
38606;DHT22;24365;48.446;8.850;2023-04-29T18:05:08;14.40;50.90
38606;DHT22;24365;48.446;8.850;2023-04-29T18:10:09;14.30;51.30
38606;DHT22;24365;48.446;8.850;2023-04-29T18:15:11;14.20;52.00
38606;DHT22;24365;48.446;8.850;2023-04-29T18:20:13;14.10;52.70
38606;DHT22;24365;48.446;8.850;2023-04-29T18:25:14;14.00;53.20
38606;DHT22;24365;48.446;8.850;2023-04-29T18:30:17;13.90;53.30
38606;DHT22;24365;48.446;8.850;2023-04-29T18:35:18;14.00;53.00
38606;DHT22;24365;48.446;8.850;2023-04-29T18:40:19;13.90;54.30
38606;DHT22;24365;48.446;8.850;2023-04-29T18:45:20;13.90;53.80
38606;DHT22;24365;48.446;8.850;2023-04-29T18:50:22;13.90;53.60
38606;DHT22;24365;48.446;8.850;2023-04-29T18:55:23;13.90;53.60
38606;DHT22;24365;48.446;8.850;2023-04-29T19:00:24;13.80;53.00
38606;DHT22;24365;48.446;8.850;2023-04-29T19:05:25;13.70;53.30
38606;DHT22;24365;48.446;8.850;2023-04-29T19:10:27;13.70;54.80
38606;DHT22;24365;48.446;8.850;2023-04-29T19:15:29;13.70;54.50
38606;DHT22;24365;48.446;8.850;2023-04-29T19:20:31;13.70;55.00
38606;DHT22;24365;48.446;8.850;2023-04-29T19:25:32;13.80;54.30
38606;DHT22;24365;48.446;8.850;2023-04-29T19:30:34;13.70;54.60
38606;DHT22;24365;48.446;8.850;2023-04-29T19:35:38;13.70;55.00
38606;DHT22;24365;48.446;8.850;2023-04-29T19:40:39;13.70;55.40
38606;DHT22;24365;48.446;8.850;2023-04-29T19:45:40;13.60;56.10
38606;DHT22;24365;48.446;8.850;2023-04-29T19:50:41;13.60;56.70
38606;DHT22;24365;48.446;8.850;2023-04-29T19:55:43;13.60;56.30
38606;DHT22;24365;48.446;8.850;2023-04-29T20:00:44;13.50;56.90
38606;DHT22;24365;48.446;8.850;2023-04-29T20:05:45;13.40;55.90
38606;DHT22;24365;48.446;8.850;2023-04-29T20:10:48;13.40;55.90
38606;DHT22;24365;48.446;8.850;2023-04-29T20:15:50;13.30;56.90
38606;DHT22;24365;48.446;8.850;2023-04-29T20:20:51;13.20;56.20
38606;DHT22;24365;48.446;8.850;2023-04-29T20:25:52;13.20;56.20
38606;DHT22;24365;48.446;8.850;2023-04-29T20:30:55;13.10;56.70
38606;DHT22;24365;48.446;8.850;2023-04-29T20:35:56;13.20;56.00
38606;DHT22;24365;48.446;8.850;2023-04-29T20:40:59;13.10;56.00
38606;DHT22;24365;48.446;8.850;2023-04-29T20:46:00;12.90;57.00
38606;DHT22;24365;48.446;8.850;2023-04-29T20:51:02;13.00;56.50
38606;DHT22;24365;48.446;8.850;2023-04-29T20:56:03;12.90;57.40
38606;DHT22;24365;48.446;8.850;2023-04-29T21:01:05;12.90;57.30
38606;DHT22;24365;48.446;8.850;2023-04-29T21:06:06;12.80;57.20
38606;DHT22;24365;48.446;8.850;2023-04-29T21:11:07;12.70;57.20
38606;DHT22;24365;48.446;8.850;2023-04-29T21:16:09;12.70;58.60
38606;DHT22;24365;48.446;8.850;2023-04-29T21:21:11;12.60;58.80
38606;DHT22;24365;48.446;8.850;2023-04-29T21:26:12;12.60;59.20
38606;DHT22;24365;48.446;8.850;2023-04-29T21:31:14;12.50;59.30
38606;DHT22;24365;48.446;8.850;2023-04-29T21:36:16;12.60;60.20
38606;DHT22;24365;48.446;8.850;2023-04-29T21:41:18;12.50;61.00
38606;DHT22;24365;48.446;8.850;2023-04-29T21:46:20;12.50;62.20
38606;DHT22;24365;48.446;8.850;2023-04-29T21:51:21;12.50;63.50
38606;DHT22;24365;48.446;8.850;2023-04-29T21:56:22;12.50;63.80
38606;DHT22;24365;48.446;8.850;2023-04-29T22:01:24;12.50;64.20
38606;DHT22;24365;48.446;8.850;2023-04-29T22:06:26;12.40;64.30
38606;DHT22;24365;48.446;8.850;2023-04-29T22:11:27;12.40;64.10
38606;DHT22;24365;48.446;8.850;2023-04-29T22:16:28;12.40;65.00
38606;DHT22;24365;48.446;8.850;2023-04-29T22:21:29;12.40;64.90
38606;DHT22;24365;48.446;8.850;2023-04-29T22:26:31;12.10;65.50
38606;DHT22;24365;48.446;8.850;2023-04-29T22:31:32;12.10;66.20
38606;DHT22;24365;48.446;8.850;2023-04-29T22:36:33;12.20;66.70
38606;DHT22;24365;48.446;8.850;2023-04-29T22:41:36;12.20;66.20
38606;DHT22;24365;48.446;8.850;2023-04-29T22:46:37;12.10;66.40
38606;DHT22;24365;48.446;8.850;2023-04-29T22:51:38;12.10;66.90
38606;DHT22;24365;48.446;8.850;2023-04-29T22:56:39;12.00;67.00
38606;DHT22;24365;48.446;8.850;2023-04-29T23:01:40;12.10;66.80
38606;DHT22;24365;48.446;8.850;2023-04-29T23:06:41;12.00;67.30
38606;DHT22;24365;48.446;8.850;2023-04-29T23:11:42;11.90;67.90
38606;DHT22;24365;48.446;8.850;2023-04-29T23:16:43;11.80;67.50
38606;DHT22;24365;48.446;8.850;2023-04-29T23:21:44;11.80;68.50
38606;DHT22;24365;48.446;8.850;2023-04-29T23:26:45;11.80;68.20
38606;DHT22;24365;48.446;8.850;2023-04-29T23:31:46;11.70;68.30
38606;DHT22;24365;48.446;8.850;2023-04-29T23:36:47;11.60;68.60
38606;DHT22;24365;48.446;8.850;2023-04-29T23:41:48;11.60;68.50
38606;DHT22;24365;48.446;8.850;2023-04-29T23:46:49;11.50;68.70
38606;DHT22;24365;48.446;8.850;2023-04-29T23:51:50;11.40;68.90
38606;DHT22;24365;48.446;8.850;2023-04-29T23:56:51;11.40;69.50
